sensor_id;sensor_type;location;lat;lon;timestamp;pressure;altitude;pressure_sealevel;temperature;humidity
22031;BME280;11179;52.106;21.024;2024-02-21T00:00:28;100902.53;;;4.19;74.58
22031;BME280;11179;52.106;21.024;2024-02-21T00:02:53;100907.97;;;4.19;74.72
22031;BME280;11179;52.106;21.024;2024-02-21T00:05:19;100908.59;;;4.21;74.81
22031;BME280;11179;52.106;21.024;2024-02-21T00:07:44;100903.78;;;4.17;74.63
22031;BME280;11179;52.106;21.024;2024-02-21T00:10:09;100905.88;;;4.21;74.83
22031;BME280;11179;52.106;21.024;2024-02-21T00:12:35;100911.13;;;4.23;74.86
22031;BME280;11179;52.106;21.024;2024-02-21T00:15:00;100910.09;;;4.24;74.74
22031;BME280;11179;52.106;21.024;2024-02-21T00:17:26;100909.25;;;4.23;74.73
22031;BME280;11179;52.106;21.024;2024-02-21T00:19:51;100895.47;;;4.25;75.03
22031;BME280;11179;52.106;21.024;2024-02-21T00:22:16;100897.13;;;4.26;75.01
22031;BME280;11179;52.106;21.024;2024-02-21T00:24:42;100905.91;;;4.28;74.76
22031;BME280;11179;52.106;21.024;2024-02-21T00:27:07;100896.69;;;4.29;74.90
22031;BME280;11179;52.106;21.024;2024-02-21T00:29:32;100897.97;;;4.33;74.97
22031;BME280;11179;52.106;21.024;2024-02-21T00:31:59;100887.94;;;4.33;74.92
22031;BME280;11179;52.106;21.024;2024-02-21T00:34:24;100897.56;;;4.36;75.10
22031;BME280;11179;52.106;21.024;2024-02-21T00:36:50;100890.06;;;4.38;75.15
22031;BME280;11179;52.106;21.024;2024-02-21T00:39:15;100890.47;;;4.41;75.15
22031;BME280;11179;52.106;21.024;2024-02-21T00:41:40;100895.50;;;4.44;74.81
22031;BME280;11179;52.106;21.024;2024-02-21T00:44:06;100889.22;;;4.44;74.79
22031;BME280;11179;52.106;21.024;2024-02-21T00:46:31;100886.94;;;4.48;74.98
22031;BME280;11179;52.106;21.024;2024-02-21T00:48:57;100892.19;;;4.49;75.23
22031;BME280;11179;52.106;21.024;2024-02-21T00:51:22;100878.78;;;4.48;75.03
22031;BME280;11179;52.106;21.024;2024-02-21T00:53:47;100882.97;;;4.50;75.34
22031;BME280;11179;52.106;21.024;2024-02-21T00:56:12;100872.94;;;4.51;75.02
22031;BME280;11179;52.106;21.024;2024-02-21T00:58:38;100871.25;;;4.56;74.88
22031;BME280;11179;52.106;21.024;2024-02-21T01:01:03;100875.44;;;4.59;75.13
22031;BME280;11179;52.106;21.024;2024-02-21T01:03:28;100868.72;;;4.55;75.02
22031;BME280;11179;52.106;21.024;2024-02-21T01:05:54;100874.19;;;4.55;75.28
22031;BME280;11179;52.106;21.024;2024-02-21T01:08:19;100864.97;;;4.56;75.28
22031;BME280;11179;52.106;21.024;2024-02-21T01:10:44;100863.09;;;4.56;75.55
22031;BME280;11179;52.106;21.024;2024-02-21T01:13:10;100862.88;;;4.58;75.63
22031;BME280;11179;52.106;21.024;2024-02-21T01:15:35;100862.88;;;4.58;75.53
22031;BME280;11179;52.106;21.024;2024-02-21T01:18:01;100859.97;;;4.59;75.51
22031;BME280;11179;52.106;21.024;2024-02-21T01:20:26;100856.22;;;4.60;75.70
22031;BME280;11179;52.106;21.024;2024-02-21T01:22:52;100853.50;;;4.60;75.57
22031;BME280;11179;52.106;21.024;2024-02-21T01:25:17;100852.84;;;4.58;75.63
22031;BME280;11179;52.106;21.024;2024-02-21T01:27:43;100851.81;;;4.59;75.83
22031;BME280;11179;52.106;21.024;2024-02-21T01:30:08;100850.78;;;4.60;75.76
22031;BME280;11179;52.106;21.024;2024-02-21T01:32:36;100846.38;;;4.59;75.77
22031;BME280;11179;52.106;21.024;2024-02-21T01:35:01;100847.84;;;4.62;76.08
22031;BME280;11179;52.106;21.024;2024-02-21T01:37:26;100851.41;;;4.62;76.02
22031;BME280;11179;52.106;21.024;2024-02-21T01:39:52;100848.69;;;4.62;75.84
22031;BME280;11179;52.106;21.024;2024-02-21T01:42:17;100847.44;;;4.65;75.90
22031;BME280;11179;52.106;21.024;2024-02-21T01:44:43;100846.59;;;4.64;75.99
22031;BME280;11179;52.106;21.024;2024-02-21T01:47:09;100845.31;;;4.67;76.10
22031;BME280;11179;52.106;21.024;2024-02-21T01:49:35;100842.41;;;4.68;76.41
22031;BME280;11179;52.106;21.024;2024-02-21T01:52:02;100844.06;;;4.69;76.25
22031;BME280;11179;52.106;21.024;2024-02-21T01:54:28;100841.97;;;4.71;76.52
22031;BME280;11179;52.106;21.024;2024-02-21T01:56:54;100847.00;;;4.74;76.56
22031;BME280;11179;52.106;21.024;2024-02-21T01:59:21;100839.69;;;4.75;76.45
22031;BME280;11179;52.106;21.024;2024-02-21T02:01:46;100842.41;;;4.75;76.60
22031;BME280;11179;52.106;21.024;2024-02-21T02:04:13;100839.06;;;4.73;76.53
22031;BME280;11179;52.106;21.024;2024-02-21T02:06:39;100830.25;;;4.71;76.54
22031;BME280;11179;52.106;21.024;2024-02-21T02:09:05;100839.06;;;4.73;76.76
22031;BME280;11179;52.106;21.024;2024-02-21T02:11:31;100840.94;;;4.72;76.86
22031;BME280;11179;52.106;21.024;2024-02-21T02:13:57;100839.50;;;4.76;76.74
22031;BME280;11179;52.106;21.024;2024-02-21T02:16:22;100834.88;;;4.77;76.67
22031;BME280;11179;52.106;21.024;2024-02-21T02:18:48;100839.69;;;4.75;76.63
22031;BME280;11179;52.106;21.024;2024-02-21T02:22:03;100829.84;;;4.74;76.78
22031;BME280;11179;52.106;21.024;2024-02-21T02:24:30;100834.03;;;4.76;76.86
22031;BME280;11179;52.106;21.024;2024-02-21T02:26:56;100828.59;;;4.76;76.86
22031;BME280;11179;52.106;21.024;2024-02-21T02:29:21;100827.56;;;4.77;76.86
22031;BME280;11179;52.106;21.024;2024-02-21T02:31:47;100826.53;;;4.78;77.02
22031;BME280;11179;52.106;21.024;2024-02-21T02:34:12;100820.00;;;4.79;76.86
22031;BME280;11179;52.106;21.024;2024-02-21T02:36:37;100824.63;;;4.79;76.81
22031;BME280;11179;52.106;21.024;2024-02-21T02:39:03;100820.63;;;4.82;76.82
22031;BME280;11179;52.106;21.024;2024-02-21T02:41:28;100820.63;;;4.82;76.98
22031;BME280;11179;52.106;21.024;2024-02-21T02:43:53;100806.84;;;4.76;77.21
22031;BME280;11179;52.106;21.024;2024-02-21T02:46:19;100816.47;;;4.86;76.93
22031;BME280;11179;52.106;21.024;2024-02-21T02:48:44;100813.53;;;4.87;77.21
22031;BME280;11179;52.106;21.024;2024-02-21T02:51:10;100811.66;;;4.88;76.99
22031;BME280;11179;52.106;21.024;2024-02-21T02:53:35;100808.50;;;4.84;77.26
22031;BME280;11179;52.106;21.024;2024-02-21T02:56:01;100811.00;;;4.86;77.24
22031;BME280;11179;52.106;21.024;2024-02-21T02:58:26;100811.22;;;4.84;77.20
22031;BME280;11179;52.106;21.024;2024-02-21T03:00:52;100806.63;;;4.85;77.31
22031;BME280;11179;52.106;21.024;2024-02-21T03:03:17;100811.84;;;4.86;77.39
22031;BME280;11179;52.106;21.024;2024-02-21T03:05:42;100816.66;;;4.84;77.18
22031;BME280;11179;52.106;21.024;2024-02-21T03:08:08;100818.97;;;4.80;77.34
22031;BME280;11179;52.106;21.024;2024-02-21T03:10:33;100823.34;;;4.82;77.50
22031;BME280;11179;52.106;21.024;2024-02-21T03:12:59;100820.63;;;4.82;77.42
22031;BME280;11179;52.106;21.024;2024-02-21T03:15:24;100821.25;;;4.84;77.50
22031;BME280;11179;52.106;21.024;2024-02-21T03:17:49;100821.06;;;4.85;77.61
22031;BME280;11179;52.106;21.024;2024-02-21T03:20:15;100815.22;;;4.88;77.46
22031;BME280;11179;52.106;21.024;2024-02-21T03:22:41;100821.50;;;4.89;77.72
22031;BME280;11179;52.106;21.024;2024-02-21T03:25:07;100818.13;;;4.87;77.62
22031;BME280;11179;52.106;21.024;2024-02-21T03:27:32;100820.66;;;4.88;77.51
22031;BME280;11179;52.106;21.024;2024-02-21T03:29:58;100809.56;;;4.90;77.34
22031;BME280;11179;52.106;21.024;2024-02-21T03:32:23;100823.78;;;4.92;77.59
22031;BME280;11179;52.106;21.024;2024-02-21T03:34:49;100814.38;;;4.88;77.41
22031;BME280;11179;52.106;21.024;2024-02-21T03:37:14;100817.06;;;4.81;77.40
22031;BME280;11179;52.106;21.024;2024-02-21T03:39:40;100810.19;;;4.78;77.53
22031;BME280;11179;52.106;21.024;2024-02-21T03:42:06;100812.06;;;4.71;77.15
22031;BME280;11179;52.106;21.024;2024-02-21T03:44:31;100813.50;;;4.67;77.39
22031;BME280;11179;52.106;21.024;2024-02-21T03:46:58;100804.75;;;4.65;77.61
22031;BME280;11179;52.106;21.024;2024-02-21T03:49:24;100807.88;;;4.62;77.58
22031;BME280;11179;52.106;21.024;2024-02-21T03:51:49;100808.28;;;4.59;77.77
22031;BME280;11179;52.106;21.024;2024-02-21T03:54:14;100804.75;;;4.59;77.66
22031;BME280;11179;52.106;21.024;2024-02-21T03:56:40;100809.34;;;4.58;77.59
22031;BME280;11179;52.106;21.024;2024-02-21T03:59:08;100813.53;;;4.61;77.52
22031;BME280;11179;52.106;21.024;2024-02-21T04:01:34;100817.69;;;4.57;77.69
22031;BME280;11179;52.106;21.024;2024-02-21T04:04:00;100808.91;;;4.55;77.71
22031;BME280;11179;52.106;21.024;2024-02-21T04:06:25;100812.66;;;4.54;77.91
22031;BME280;11179;52.106;21.024;2024-02-21T04:08:51;100810.19;;;4.52;77.43
22031;BME280;11179;52.106;21.024;2024-02-21T04:11:16;100810.38;;;4.57;77.76
22031;BME280;11179;52.106;21.024;2024-02-21T04:13:44;100809.53;;;4.57;77.61
22031;BME280;11179;52.106;21.024;2024-02-21T04:16:09;100805.56;;;4.59;77.60
22031;BME280;11179;52.106;21.024;2024-02-21T04:18:35;100801.19;;;4.58;77.78
22031;BME280;11179;52.106;21.024;2024-02-21T04:21:00;100803.50;;;4.61;77.78
22031;BME280;11179;52.106;21.024;2024-02-21T04:23:25;100806.00;;;4.63;77.93
22031;BME280;11179;52.106;21.024;2024-02-21T04:25:51;100799.31;;;4.65;77.77
22031;BME280;11179;52.106;21.024;2024-02-21T04:28:16;100801.59;;;4.68;77.61
22031;BME280;11179;52.106;21.024;2024-02-21T04:30:41;100806.81;;;4.70;77.69
22031;BME280;11179;52.106;21.024;2024-02-21T04:33:07;100786.09;;;4.69;77.63
22031;BME280;11179;52.106;21.024;2024-02-21T04:35:32;100790.09;;;4.73;77.75
22031;BME280;11179;52.106;21.024;2024-02-21T04:37:57;100791.56;;;4.75;77.45
22031;BME280;11179;52.106;21.024;2024-02-21T04:40:23;100786.75;;;4.77;77.47
22031;BME280;11179;52.106;21.024;2024-02-21T04:42:48;100787.34;;;4.79;77.71
22031;BME280;11179;52.106;21.024;2024-02-21T04:45:13;100793.63;;;4.80;77.69
22031;BME280;11179;52.106;21.024;2024-02-21T04:47:39;100790.06;;;4.79;77.54
22031;BME280;11179;52.106;21.024;2024-02-21T04:50:04;100793.63;;;4.80;77.52
22031;BME280;11179;52.106;21.024;2024-02-21T04:52:30;100788.44;;;4.78;77.56
22031;BME280;11179;52.106;21.024;2024-02-21T04:54:55;100789.28;;;4.79;77.31
22031;BME280;11179;52.106;21.024;2024-02-21T04:57:21;100787.16;;;4.81;77.47
22031;BME280;11179;52.106;21.024;2024-02-21T04:59:47;100786.09;;;4.82;77.44
22031;BME280;11179;52.106;21.024;2024-02-21T05:02:13;100789.66;;;4.83;77.47
22031;BME280;11179;52.106;21.024;2024-02-21T05:04:38;100785.91;;;4.84;77.29
22031;BME280;11179;52.106;21.024;2024-02-21T05:07:05;100778.78;;;4.83;77.60
22031;BME280;11179;52.106;21.024;2024-02-21T05:09:30;100776.06;;;4.83;77.59
22031;BME280;11179;52.106;21.024;2024-02-21T05:11:56;100785.25;;;4.82;77.32
22031;BME280;11179;52.106;21.024;2024-02-21T05:14:24;100790.50;;;4.83;77.35
22031;BME280;11179;52.106;21.024;2024-02-21T05:16:49;100781.50;;;4.83;77.69
22031;BME280;11179;52.106;21.024;2024-02-21T05:19:14;100790.28;;;4.85;77.45
22031;BME280;11179;52.106;21.024;2024-02-21T05:21:40;100782.13;;;4.85;77.23
22031;BME280;11179;52.106;21.024;2024-02-21T05:24:05;100778.38;;;4.86;77.44
22031;BME280;11179;52.106;21.024;2024-02-21T05:26:30;100787.38;;;4.86;77.31
22031;BME280;11179;52.106;21.024;2024-02-21T05:28:56;100790.09;;;4.86;77.29
22031;BME280;11179;52.106;21.024;2024-02-21T05:31:21;100783.41;;;4.89;77.17
22031;BME280;11179;52.106;21.024;2024-02-21T05:33:47;100783.41;;;4.89;77.56
22031;BME280;11179;52.106;21.024;2024-02-21T05:36:13;100785.69;;;4.92;77.38
22031;BME280;11179;52.106;21.024;2024-02-21T05:38:39;100790.06;;;4.93;77.35
22031;BME280;11179;52.106;21.024;2024-02-21T05:41:04;100776.47;;;4.93;77.30
22031;BME280;11179;52.106;21.024;2024-02-21T05:43:30;100777.53;;;4.92;77.19
22031;BME280;11179;52.106;21.024;2024-02-21T05:45:55;100779.19;;;4.93;77.30
22031;BME280;11179;52.106;21.024;2024-02-21T05:48:24;100763.50;;;4.88;77.23
22031;BME280;11179;52.106;21.024;2024-02-21T05:50:50;100773.75;;;4.93;77.22
22031;BME280;11179;52.106;21.024;2024-02-21T05:53:16;100763.94;;;4.92;77.04
22031;BME280;11179;52.106;21.024;2024-02-21T05:55:41;100769.97;;;4.94;77.05
22031;BME280;11179;52.106;21.024;2024-02-21T05:58:07;100770.81;;;4.94;77.22
22031;BME280;11179;52.106;21.024;2024-02-21T06:00:35;100766.41;;;4.93;77.26
22031;BME280;11179;52.106;21.024;2024-02-21T06:03:00;100772.69;;;4.94;77.17
22031;BME280;11179;52.106;21.024;2024-02-21T06:05:27;100770.81;;;4.94;77.26
22031;BME280;11179;52.106;21.024;2024-02-21T06:07:52;100767.03;;;4.95;77.20
22031;BME280;11179;52.106;21.024;2024-02-21T06:10:17;100763.69;;;5.00;77.19
22031;BME280;11179;52.106;21.024;2024-02-21T06:12:43;100752.81;;;5.00;77.22
22031;BME280;11179;52.106;21.024;2024-02-21T06:15:08;100763.91;;;5.05;77.06
22031;BME280;11179;52.106;21.024;2024-02-21T06:17:34;100763.25;;;5.09;77.15
22031;BME280;11179;52.106;21.024;2024-02-21T06:19:59;100765.34;;;5.14;77.25
22031;BME280;11179;52.106;21.024;2024-02-21T06:22:24;100774.13;;;5.16;77.03
22031;BME280;11179;52.106;21.024;2024-02-21T06:24:50;100767.00;;;5.22;76.93
22031;BME280;11179;52.106;21.024;2024-02-21T06:27:15;100770.75;;;5.21;77.15
22031;BME280;11179;52.106;21.024;2024-02-21T06:29:41;100772.44;;;5.28;77.15
22031;BME280;11179;52.106;21.024;2024-02-21T06:32:07;100766.56;;;5.31;77.28
22031;BME280;11179;52.106;21.024;2024-02-21T06:34:32;100760.66;;;5.34;77.12
22031;BME280;11179;52.106;21.024;2024-02-21T06:36:57;100763.16;;;5.42;77.16
22031;BME280;11179;52.106;21.024;2024-02-21T06:39:23;100768.56;;;5.49;77.20
22031;BME280;11179;52.106;21.024;2024-02-21T06:41:48;100762.28;;;5.55;77.06
22031;BME280;11179;52.106;21.024;2024-02-21T06:44:16;100772.09;;;5.63;77.07
22031;BME280;11179;52.106;21.024;2024-02-21T06:46:41;100773.13;;;5.68;77.02
22031;BME280;11179;52.106;21.024;2024-02-21T06:49:06;100767.66;;;5.68;76.93
22031;BME280;11179;52.106;21.024;2024-02-21T06:51:32;100771.59;;;5.79;77.10
22031;BME280;11179;52.106;21.024;2024-02-21T06:53:58;100778.47;;;5.88;76.91
22031;BME280;11179;52.106;21.024;2024-02-21T06:56:24;100781.56;;;5.98;76.79
22031;BME280;11179;52.106;21.024;2024-02-21T06:58:57;100776.13;;;5.98;76.84
22031;BME280;11179;52.106;21.024;2024-02-21T07:01:23;100782.00;;;5.95;77.09
22031;BME280;11179;52.106;21.024;2024-02-21T07:03:48;100778.22;;;5.96;76.92
22031;BME280;11179;52.106;21.024;2024-02-21T07:06:14;100771.25;;;6.00;77.02
22031;BME280;11179;52.106;21.024;2024-02-21T07:08:39;100767.94;;;5.98;76.68
22031;BME280;11179;52.106;21.024;2024-02-21T07:11:06;100775.66;;;6.01;76.77
22031;BME280;11179;52.106;21.024;2024-02-21T07:13:32;100764.53;;;6.03;77.12
22031;BME280;11179;52.106;21.024;2024-02-21T07:15:58;100768.28;;;6.08;77.21
22031;BME280;11179;52.106;21.024;2024-02-21T07:18:23;100759.69;;;6.11;77.12
22031;BME280;11179;52.106;21.024;2024-02-21T07:20:50;100763.19;;;6.18;77.15
22031;BME280;11179;52.106;21.024;2024-02-21T07:23:16;100766.97;;;6.17;77.15
22031;BME280;11179;52.106;21.024;2024-02-21T07:25:41;100762.34;;;6.18;76.93
22031;BME280;11179;52.106;21.024;2024-02-21T07:28:06;100754.78;;;6.20;77.10
22031;BME280;11179;52.106;21.024;2024-02-21T07:30:32;100760.59;;;6.30;77.23
22031;BME280;11179;52.106;21.024;2024-02-21T07:32:57;100756.41;;;6.34;76.87
22031;BME280;11179;52.106;21.024;2024-02-21T07:35:22;100753.03;;;6.39;76.69
22031;BME280;11179;52.106;21.024;2024-02-21T07:37:48;100759.28;;;6.39;76.82
22031;BME280;11179;52.106;21.024;2024-02-21T07:40:14;100752.56;;;6.42;76.79
22031;BME280;11179;52.106;21.024;2024-02-21T07:42:40;100748.34;;;6.46;76.62
22031;BME280;11179;52.106;21.024;2024-02-21T07:45:07;100749.41;;;6.45;76.74
22031;BME280;11179;52.106;21.024;2024-02-21T07:47:32;100746.44;;;6.46;76.68
22031;BME280;11179;52.106;21.024;2024-02-21T07:49:57;100738.66;;;6.50;76.78
22031;BME280;11179;52.106;21.024;2024-02-21T07:52:23;100732.75;;;6.53;76.75
22031;BME280;11179;52.106;21.024;2024-02-21T07:54:49;100738.19;;;6.53;76.45
22031;BME280;11179;52.106;21.024;2024-02-21T07:57:15;100728.50;;;6.57;76.47
22031;BME280;11179;52.106;21.024;2024-02-21T07:59:40;100731.25;;;6.57;76.34
22031;BME280;11179;52.106;21.024;2024-02-21T08:02:05;100732.69;;;6.60;76.50
22031;BME280;11179;52.106;21.024;2024-02-21T08:04:32;100728.06;;;6.60;76.12
22031;BME280;11179;52.106;21.024;2024-02-21T08:06:57;100717.94;;;6.67;76.39
22031;BME280;11179;52.106;21.024;2024-02-21T08:09:26;100714.22;;;6.80;76.14
22031;BME280;11179;52.106;21.024;2024-02-21T08:11:51;100710.78;;;6.91;76.35
22031;BME280;11179;52.106;21.024;2024-02-21T08:14:17;100706.59;;;7.07;76.17
22031;BME280;11179;52.106;21.024;2024-02-21T08:16:43;100703.13;;;7.18;75.79
22031;BME280;11179;52.106;21.024;2024-02-21T08:19:09;100705.09;;;7.29;75.52
22031;BME280;11179;52.106;21.024;2024-02-21T08:21:35;100697.19;;;7.39;75.73
22031;BME280;11179;52.106;21.024;2024-02-21T08:24:00;100688.91;;;7.46;75.13
22031;BME280;11179;52.106;21.024;2024-02-21T08:26:26;100690.94;;;7.50;75.14
22031;BME280;11179;52.106;21.024;2024-02-21T08:28:55;100689.44;;;7.54;74.89
22031;BME280;11179;52.106;21.024;2024-02-21T08:31:23;100682.69;;;7.57;74.97
22031;BME280;11179;52.106;21.024;2024-02-21T08:33:49;100683.63;;;7.62;74.78
22031;BME280;11179;52.106;21.024;2024-02-21T08:36:18;100687.34;;;7.68;74.85
22031;BME280;11179;52.106;21.024;2024-02-21T08:38:47;100685.56;;;7.74;74.44
22031;BME280;11179;52.106;21.024;2024-02-21T08:41:12;100686.78;;;7.78;74.28
22031;BME280;11179;52.106;21.024;2024-02-21T08:43:38;100680.88;;;7.81;74.25
22031;BME280;11179;52.106;21.024;2024-02-21T08:46:04;100692.41;;;7.83;74.10
22031;BME280;11179;52.106;21.024;2024-02-21T08:48:30;100688.13;;;7.87;74.15
22031;BME280;11179;52.106;21.024;2024-02-21T08:50:55;100678.16;;;7.92;73.78
22031;BME280;11179;52.106;21.024;2024-02-21T08:53:20;100685.78;;;8.02;73.57
22031;BME280;11179;52.106;21.024;2024-02-21T08:55:46;100682.59;;;8.05;73.46
22031;BME280;11179;52.106;21.024;2024-02-21T08:58:11;100681.69;;;8.11;73.24
22031;BME280;11179;52.106;21.024;2024-02-21T09:00:37;100682.41;;;8.18;72.92
22031;BME280;11179;52.106;21.024;2024-02-21T09:03:02;100674.03;;;8.13;72.50
22031;BME280;11179;52.106;21.024;2024-02-21T09:05:28;100673.81;;;8.15;72.45
22031;BME280;11179;52.106;21.024;2024-02-21T09:07:53;100669.56;;;8.19;72.43
22031;BME280;11179;52.106;21.024;2024-02-21T09:10:19;100678.03;;;8.29;72.51
22031;BME280;11179;52.106;21.024;2024-02-21T09:12:44;100665.78;;;8.43;72.42
22031;BME280;11179;52.106;21.024;2024-02-21T09:15:10;100672.47;;;8.59;71.86
22031;BME280;11179;52.106;21.024;2024-02-21T09:17:35;100675.22;;;8.70;71.48
22031;BME280;11179;52.106;21.024;2024-02-21T09:20:01;100672.47;;;8.70;71.28
22031;BME280;11179;52.106;21.024;2024-02-21T09:22:29;100669.97;;;8.69;71.15
22031;BME280;11179;52.106;21.024;2024-02-21T09:24:54;100665.81;;;8.78;70.86
22031;BME280;11179;52.106;21.024;2024-02-21T09:27:20;100656.63;;;8.84;70.85
22031;BME280;11179;52.106;21.024;2024-02-21T09:29:45;100662.91;;;8.96;70.60
22031;BME280;11179;52.106;21.024;2024-02-21T09:32:11;100659.72;;;8.99;70.45
22031;BME280;11179;52.106;21.024;2024-02-21T09:34:36;100662.91;;;8.96;69.97
22031;BME280;11179;52.106;21.024;2024-02-21T09:37:01;100666.41;;;8.92;70.29
22031;BME280;11179;52.106;21.024;2024-02-21T09:39:27;100662.34;;;8.83;69.75
22031;BME280;11179;52.106;21.024;2024-02-21T09:41:59;100660.44;;;8.71;69.89
22031;BME280;11179;52.106;21.024;2024-02-21T09:44:32;100663.66;;;8.68;69.88
22031;BME280;11179;52.106;21.024;2024-02-21T09:47:10;100657.09;;;8.69;69.91
22031;BME280;11179;52.106;21.024;2024-02-21T09:49:40;100654.28;;;8.64;69.60
22031;BME280;11179;52.106;21.024;2024-02-21T09:52:06;100653.91;;;8.61;69.68
22031;BME280;11179;52.106;21.024;2024-02-21T09:54:33;100662.34;;;8.59;69.75
22031;BME280;11179;52.106;21.024;2024-02-21T09:57:03;100651.28;;;8.66;69.82
22031;BME280;11179;52.106;21.024;2024-02-21T09:59:32;100658.31;;;8.74;69.52
22031;BME280;11179;52.106;21.024;2024-02-21T10:01:57;100650.78;;;8.81;69.45
22031;BME280;11179;52.106;21.024;2024-02-21T10:04:25;100644.22;;;8.93;69.54
22031;BME280;11179;52.106;21.024;2024-02-21T10:06:51;100640.19;;;8.96;69.27
22031;BME280;11179;52.106;21.024;2024-02-21T10:09:26;100640.53;;;8.99;69.18
22031;BME280;11179;52.106;21.024;2024-02-21T10:11:56;100633.16;;;9.00;68.79
22031;BME280;11179;52.106;21.024;2024-02-21T10:14:32;100632.56;;;8.98;68.68
22031;BME280;11179;52.106;21.024;2024-02-21T10:16:57;100624.81;;;8.95;68.62
22031;BME280;11179;52.106;21.024;2024-02-21T10:19:24;100636.97;;;8.99;68.86
22031;BME280;11179;52.106;21.024;2024-02-21T10:22:03;100624.81;;;8.95;68.63
22031;BME280;11179;52.106;21.024;2024-02-21T10:24:29;100628.38;;;8.95;68.59
22031;BME280;11179;52.106;21.024;2024-02-21T10:26:59;100626.03;;;8.87;68.54
22031;BME280;11179;52.106;21.024;2024-02-21T10:29:25;100623.88;;;8.89;68.73
22031;BME280;11179;52.106;21.024;2024-02-21T10:31:50;100623.38;;;8.92;68.63
22031;BME280;11179;52.106;21.024;2024-02-21T10:34:16;100621.75;;;8.91;68.43
22031;BME280;11179;52.106;21.024;2024-02-21T10:36:42;100611.94;;;8.95;68.73
22031;BME280;11179;52.106;21.024;2024-02-21T10:39:08;100601.47;;;8.92;68.43
22031;BME280;11179;52.106;21.024;2024-02-21T10:41:35;100604.97;;;8.88;68.61
22031;BME280;11179;52.106;21.024;2024-02-21T10:44:05;100616.16;;;8.86;68.44
22031;BME280;11179;52.106;21.024;2024-02-21T10:46:31;100607.09;;;8.86;68.52
22031;BME280;11179;52.106;21.024;2024-02-21T10:49:10;100612.47;;;8.81;68.43
22031;BME280;11179;52.106;21.024;2024-02-21T10:51:43;100606.88;;;8.76;68.62
22031;BME280;11179;52.106;21.024;2024-02-21T10:54:13;100601.88;;;8.73;68.59
22031;BME280;11179;52.106;21.024;2024-02-21T10:56:42;100597.25;;;8.73;68.92
22031;BME280;11179;52.106;21.024;2024-02-21T10:59:08;100602.72;;;8.73;68.70
22031;BME280;11179;52.106;21.024;2024-02-21T11:01:33;100600.91;;;8.79;68.81
22031;BME280;11179;52.106;21.024;2024-02-21T11:04:04;100590.06;;;8.84;69.00
22031;BME280;11179;52.106;21.024;2024-02-21T11:06:31;100594.84;;;8.88;68.97
22031;BME280;11179;52.106;21.024;2024-02-21T11:09:01;100581.75;;;8.90;68.81
22031;BME280;11179;52.106;21.024;2024-02-21T11:11:28;100581.16;;;8.88;68.62
22031;BME280;11179;52.106;21.024;2024-02-21T11:14:09;100571.88;;;8.89;68.87
22031;BME280;11179;52.106;21.024;2024-02-21T11:16:40;100575.28;;;8.96;68.85
22031;BME280;11179;52.106;21.024;2024-02-21T11:19:22;100562.34;;;8.92;68.77
22031;BME280;11179;52.106;21.024;2024-02-21T11:21:48;100564.81;;;8.93;68.67
22031;BME280;11179;52.106;21.024;2024-02-21T11:24:14;100568.38;;;8.94;68.84
22031;BME280;11179;52.106;21.024;2024-02-21T11:26:50;100561.50;;;8.91;68.74
22031;BME280;11179;52.106;21.024;2024-02-21T11:29:23;100563.06;;;8.87;68.89
22031;BME280;11179;52.106;21.024;2024-02-21T11:31:48;100554.47;;;8.84;68.97
22031;BME280;11179;52.106;21.024;2024-02-21T11:34:17;100553.56;;;8.78;69.10
22031;BME280;11179;52.106;21.024;2024-02-21T11:36:50;100555.34;;;8.73;69.34
22031;BME280;11179;52.106;21.024;2024-02-21T11:39:23;100549.50;;;8.69;69.06
22031;BME280;11179;52.106;21.024;2024-02-21T11:42:06;100550.00;;;8.66;69.35
22031;BME280;11179;52.106;21.024;2024-02-21T11:44:33;100549.44;;;8.64;69.28
22031;BME280;11179;52.106;21.024;2024-02-21T11:46:59;100554.41;;;8.55;69.43
22031;BME280;11179;52.106;21.024;2024-02-21T11:49:26;100551.34;;;8.52;69.56
22031;BME280;11179;52.106;21.024;2024-02-21T11:52:01;100550.16;;;8.48;70.00
22031;BME280;11179;52.106;21.024;2024-02-21T11:54:32;100549.56;;;8.46;69.92
22031;BME280;11179;52.106;21.024;2024-02-21T11:56:58;100543.03;;;8.47;69.89
22031;BME280;11179;52.106;21.024;2024-02-21T11:59:24;100546.13;;;8.50;69.99
22031;BME280;11179;52.106;21.024;2024-02-21T12:01:49;100544.09;;;8.46;70.06
22031;BME280;11179;52.106;21.024;2024-02-21T12:04:17;100536.34;;;8.43;70.54
22031;BME280;11179;52.106;21.024;2024-02-21T12:06:45;100535.19;;;8.39;70.54
22031;BME280;11179;52.106;21.024;2024-02-21T12:09:14;100528.88;;;8.38;70.78
22031;BME280;11179;52.106;21.024;2024-02-21T12:11:40;100539.47;;;8.34;70.61
22031;BME280;11179;52.106;21.024;2024-02-21T12:14:05;100527.34;;;8.30;71.08
22031;BME280;11179;52.106;21.024;2024-02-21T12:16:32;100529.47;;;8.28;70.97
22031;BME280;11179;52.106;21.024;2024-02-21T12:19:00;100519.50;;;8.22;71.20
22031;BME280;11179;52.106;21.024;2024-02-21T12:21:27;100524.00;;;8.28;71.35
22031;BME280;11179;52.106;21.024;2024-02-21T12:23:55;100514.13;;;8.27;71.21
22031;BME280;11179;52.106;21.024;2024-02-21T12:26:21;100520.66;;;8.26;71.30
22031;BME280;11179;52.106;21.024;2024-02-21T12:28:47;100514.13;;;8.27;71.48
22031;BME280;11179;52.106;21.024;2024-02-21T12:31:13;100517.38;;;8.24;71.74
22031;BME280;11179;52.106;21.024;2024-02-21T12:33:38;100510.22;;;8.23;71.83
22031;BME280;11179;52.106;21.024;2024-02-21T12:36:04;100510.22;;;8.23;71.84
22031;BME280;11179;52.106;21.024;2024-02-21T12:38:29;100513.88;;;8.17;71.93
22031;BME280;11179;52.106;21.024;2024-02-21T12:40:55;100498.53;;;8.16;71.91
22031;BME280;11179;52.106;21.024;2024-02-21T12:43:22;100498.94;;;8.20;72.10
22031;BME280;11179;52.106;21.024;2024-02-21T12:45:47;100497.13;;;8.25;71.87